createdAt,value
2022-12-13T00:00:39.868Z,51.47
2022-12-13T00:05:44.940Z,52.93
2022-12-13T00:10:46.347Z,50.07
2022-12-13T00:15:56.530Z,47.13
2022-12-13T00:20:58.082Z,46.80
2022-12-13T00:26:07.550Z,53.37
2022-12-13T00:31:44.688Z,44.67
2022-12-13T00:36:31.366Z,46.73
2022-12-13T00:41:35.956Z,46.10
2022-12-13T00:51:40.023Z,50.23
2022-12-13T00:56:41.590Z,42.47
2022-12-13T01:01:43.567Z,45.07
2022-12-13T01:06:49.780Z,45.60
2022-12-13T01:11:51.335Z,44.47
2022-12-13T01:16:56.035Z,48.87
2022-12-13T01:21:59.954Z,47.80
2022-12-13T01:27:01.555Z,43.60
2022-12-13T01:32:03.033Z,47.63
2022-12-13T01:37:04.519Z,49.70
2022-12-13T01:42:06.084Z,44.40
2022-12-13T01:47:07.659Z,43.30
2022-12-13T01:52:13.561Z,49.17
2022-12-13T01:57:17.798Z,46.30
2022-12-13T02:02:19.433Z,50.03
2022-12-13T02:07:26.509Z,47.47
2022-12-13T02:12:30.924Z,50.03
2022-12-13T02:23:01.585Z,43.60
2022-12-13T02:28:33.893Z,47.90
2022-12-13T02:34:26.939Z,49.00
2022-12-13T02:39:47.408Z,48.47
2022-12-13T02:45:20.903Z,55.03
2022-12-13T02:50:30.694Z,46.73
2022-12-13T02:55:41.139Z,53.60
2022-12-13T03:00:51.258Z,46.27
2022-12-13T03:06:33.487Z,47.43
2022-12-13T03:12:22.544Z,48.20
2022-12-13T03:17:26.275Z,47.53
2022-12-13T03:22:27.691Z,51.57
2022-12-13T03:27:29.238Z,42.50
2022-12-13T03:32:30.655Z,45.23
2022-12-13T03:37:32.127Z,47.27
2022-12-13T03:42:33.579Z,50.47
2022-12-13T03:47:34.979Z,49.27
2022-12-13T03:52:36.462Z,42.43
2022-12-13T03:57:37.924Z,47.20
2022-12-13T04:02:39.550Z,48.03
2022-12-13T04:07:41.197Z,50.50
2022-12-13T04:13:08.504Z,42.67
2022-12-13T04:18:09.924Z,49.00
2022-12-13T04:23:12.044Z,45.83
2022-12-13T04:28:22.728Z,47.47
2022-12-13T04:33:24.867Z,38.70
2022-12-13T04:38:26.361Z,44.50
2022-12-13T04:43:27.824Z,49.87
2022-12-13T04:48:30.854Z,43.50
2022-12-13T04:53:33.181Z,42.80
2022-12-13T04:58:34.713Z,46.10
2022-12-13T05:03:36.620Z,48.27
2022-12-13T05:08:38.343Z,45.83
2022-12-13T05:13:39.799Z,51.70
2022-12-13T05:18:41.961Z,45.40
2022-12-13T05:23:43.452Z,46.83
2022-12-13T05:28:44.883Z,45.77
2022-12-13T05:33:46.364Z,43.57
2022-12-13T05:38:47.881Z,44.17
2022-12-13T05:43:49.307Z,47.07
2022-12-13T05:48:50.703Z,45.33
2022-12-13T05:53:53.543Z,46.67
2022-12-13T05:58:55.171Z,44.57
2022-12-13T06:03:56.644Z,47.83
2022-12-13T06:08:59.264Z,50.10
2022-12-13T06:14:01.382Z,48.50
2022-12-13T06:19:04.590Z,49.73
2022-12-13T06:24:08.654Z,44.37
2022-12-13T06:29:10.472Z,44.67
2022-12-13T06:34:14.925Z,48.80
2022-12-13T06:39:17.442Z,49.40
2022-12-13T06:44:18.927Z,42.93
2022-12-13T06:49:20.375Z,49.67
2022-12-13T06:54:23.714Z,43.27
2022-12-13T06:59:25.122Z,48.27
2022-12-13T07:04:29.519Z,47.37
2022-12-13T07:09:33.189Z,51.07
2022-12-13T07:14:41.114Z,46.70
2022-12-13T07:19:43.471Z,49.80
2022-12-13T07:24:45.269Z,51.47
2022-12-13T07:29:46.799Z,44.40
2022-12-13T07:34:48.308Z,50.17
2022-12-13T07:39:49.723Z,56.63
2022-12-13T07:44:51.128Z,49.67
2022-12-13T07:49:52.518Z,42.60
2022-12-13T07:54:54.017Z,48.67
2022-12-13T07:59:55.527Z,48.43
2022-12-13T08:04:57.064Z,44.83
2022-12-13T08:09:58.577Z,47.07
2022-12-13T08:15:00.067Z,47.63
2022-12-13T08:20:01.496Z,48.93
2022-12-13T08:25:03.812Z,52.80
2022-12-13T08:30:05.716Z,50.33
2022-12-13T08:35:07.504Z,65.03
2022-12-13T08:40:09.729Z,56.50
2022-12-13T08:45:11.651Z,57.17
2022-12-13T08:50:13.056Z,58.20
2022-12-13T08:55:15.601Z,52.73
2022-12-13T09:00:19.851Z,56.37
2022-12-13T09:05:33.949Z,59.33
2022-12-13T09:10:38.179Z,58.70
2022-12-13T09:15:45.891Z,50.40
2022-12-13T09:20:48.295Z,58.70
2022-12-13T09:25:54.946Z,53.83
2022-12-13T09:30:57.307Z,51.00
2022-12-13T09:36:01.400Z,57.43
2022-12-13T09:41:10.324Z,46.45
2022-12-13T09:46:44.094Z,53.60
2022-12-13T09:52:10.278Z,55.30
2022-12-13T09:57:31.599Z,68.83
2022-12-13T10:02:51.095Z,49.73
2022-12-13T10:07:55.332Z,54.23
2022-12-13T10:13:15.958Z,54.08
2022-12-13T10:18:26.053Z,47.27
2022-12-13T10:23:53.049Z,52.10
2022-12-13T10:28:48.944Z,55.33
2022-12-13T10:33:56.894Z,55.73
2022-12-13T10:38:58.886Z,56.50
2022-12-13T10:44:12.515Z,47.87
2022-12-13T10:49:23.705Z,63.80
2022-12-13T10:54:38.856Z,70.10
2022-12-13T10:59:50.845Z,69.27
2022-12-13T11:04:52.297Z,59.77
2022-12-13T11:09:53.873Z,59.93
2022-12-13T11:15:02.762Z,57.83
2022-12-13T11:20:17.788Z,58.80
2022-12-13T11:25:25.538Z,52.93
2022-12-13T11:30:52.204Z,65.20
2022-12-13T11:36:19.188Z,77.80
2022-12-13T11:42:01.759Z,66.23
2022-12-13T11:47:07.563Z,64.03
2022-12-13T11:52:19.943Z,63.37
2022-12-13T11:57:45.252Z,55.23
2022-12-13T12:02:52.097Z,60.63
2022-12-13T12:08:31.978Z,58.60
2022-12-13T12:13:34.284Z,58.13
2022-12-13T12:18:53.316Z,62.93
2022-12-13T12:24:28.860Z,67.33
2022-12-13T12:29:39.635Z,69.03
2022-12-13T12:34:58.644Z,67.17
2022-12-13T12:40:29.164Z,77.47
2022-12-13T12:46:03.208Z,70.50
2022-12-13T12:51:26.335Z,69.70
2022-12-13T12:56:42.629Z,78.23
2022-12-13T13:02:10.209Z,66.53
2022-12-13T13:07:23.066Z,72.07
2022-12-13T13:12:30.111Z,68.33
2022-12-13T13:17:32.095Z,73.17
2022-12-13T13:22:44.215Z,70.30
2022-12-13T13:27:48.909Z,74.83
2022-12-13T13:32:53.347Z,65.83
2022-12-13T13:37:55.114Z,70.18
2022-12-13T13:43:02.699Z,68.50
2022-12-13T13:48:20.845Z,70.30
2022-12-13T13:53:46.042Z,66.97
2022-12-13T13:59:23.623Z,66.53
2022-12-13T14:04:39.669Z,64.07
2022-12-13T14:10:25.125Z,66.37
2022-12-13T14:15:49.472Z,63.07
2022-12-13T14:21:12.683Z,76.10
2022-12-13T14:26:24.617Z,70.07
2022-12-13T14:31:28.974Z,61.47
2022-12-13T14:36:35.212Z,58.03
2022-12-13T14:41:46.528Z,62.80
2022-12-13T14:46:55.723Z,57.73
2022-12-13T14:52:26.695Z,61.27
2022-12-13T14:57:31.940Z,59.00
2022-12-13T15:02:33.776Z,60.17
2022-12-13T15:07:38.281Z,63.33
2022-12-13T15:12:41.591Z,56.45
2022-12-13T15:17:43.095Z,57.43
2022-12-13T15:22:44.879Z,61.20
2022-12-13T15:27:50.751Z,55.90
2022-12-13T15:33:33.433Z,62.10
2022-12-13T15:38:41.206Z,65.90
2022-12-13T15:43:46.803Z,57.97
2022-12-13T15:48:49.024Z,61.97
2022-12-13T15:54:09.026Z,63.90
2022-12-13T15:59:32.420Z,62.47
2022-12-13T16:04:33.915Z,76.03
2022-12-13T16:09:38.064Z,75.23
2022-12-13T16:14:49.192Z,71.05
2022-12-13T16:19:56.349Z,65.67
2022-12-13T16:24:59.530Z,73.37
2022-12-13T16:30:01.160Z,68.50
2022-12-13T16:35:02.605Z,86.97
2022-12-13T16:40:36.864Z,73.47
2022-12-13T16:45:48.360Z,79.07
2022-12-13T16:50:57.398Z,75.67
2022-12-13T16:55:59.589Z,74.80
2022-12-13T17:01:01.996Z,71.80
2022-12-13T17:06:04.239Z,79.43
2022-12-13T17:11:06.913Z,80.10
2022-12-13T17:16:08.674Z,71.80
2022-12-13T17:21:10.551Z,75.47
2022-12-13T17:26:12.154Z,82.07
2022-12-13T17:31:14.663Z,73.87
2022-12-13T17:36:17.037Z,78.67
2022-12-13T17:41:18.611Z,84.30
2022-12-13T17:46:20.183Z,80.87
2022-12-13T17:51:21.804Z,80.23
2022-12-13T17:56:23.344Z,84.63
2022-12-13T18:01:25.691Z,74.30
2022-12-13T18:06:27.319Z,78.77
2022-12-13T18:11:33.820Z,70.13
2022-12-13T18:16:38.451Z,68.77
2022-12-13T18:21:43.027Z,73.88
2022-12-13T18:26:44.444Z,78.35
2022-12-13T18:31:45.866Z,69.13
2022-12-13T18:36:47.407Z,69.30
2022-12-13T18:41:48.892Z,68.83
2022-12-13T18:46:51.480Z,65.20
2022-12-13T18:51:52.980Z,66.37
2022-12-13T18:56:54.476Z,70.77
2022-12-13T19:01:55.973Z,60.17
2022-12-13T19:06:57.452Z,68.87
2022-12-13T19:11:59.088Z,67.60
2022-12-13T19:17:00.528Z,70.00
2022-12-13T19:22:01.967Z,70.60
2022-12-13T19:27:03.504Z,69.63
2022-12-13T19:32:05.236Z,71.47
2022-12-13T19:37:07.945Z,74.80
2022-12-13T19:42:09.458Z,81.73
2022-12-13T19:47:11.073Z,73.97
2022-12-13T19:52:12.793Z,76.97
2022-12-13T19:57:14.331Z,77.97
2022-12-13T20:02:15.765Z,86.50
2022-12-13T20:07:17.205Z,84.33
2022-12-13T20:12:18.955Z,85.33
2022-12-13T20:17:20.511Z,79.93
2022-12-13T20:22:22.007Z,88.47
2022-12-13T20:27:23.513Z,100.60
2022-12-13T20:32:25.104Z,90.70
2022-12-13T20:37:30.066Z,91.03
2022-12-13T20:42:32.968Z,85.93
2022-12-13T20:47:37.878Z,90.57
2022-12-13T20:52:39.569Z,90.33
2022-12-13T20:57:41.024Z,92.07
2022-12-13T21:02:44.510Z,86.80
2022-12-13T21:08:04.345Z,89.60
2022-12-13T21:13:05.796Z,81.20
2022-12-13T21:18:07.195Z,86.17
2022-12-13T21:23:08.757Z,71.27
2022-12-13T21:28:10.177Z,79.80
2022-12-13T21:33:11.658Z,69.90
2022-12-13T21:38:13.220Z,78.63
2022-12-13T21:43:15.575Z,73.43
2022-12-13T21:48:16.996Z,64.87
2022-12-13T21:53:18.387Z,66.10
2022-12-13T21:58:38.523Z,69.13
2022-12-13T22:03:39.969Z,60.30
2022-12-13T22:08:41.472Z,56.00
2022-12-13T22:13:42.967Z,62.50
2022-12-13T22:18:53.292Z,65.33
2022-12-13T22:23:55.408Z,57.70
2022-12-13T22:28:58.330Z,64.83
2022-12-13T22:33:59.828Z,63.30
2022-12-13T22:39:01.500Z,55.80
2022-12-13T22:44:03.216Z,60.00
2022-12-13T22:49:05.553Z,63.33
2022-12-13T22:54:07.808Z,66.27
2022-12-13T22:59:10.463Z,55.10
2022-12-13T23:04:12.487Z,58.37
2022-12-13T23:09:15.394Z,53.47
2022-12-13T23:14:20.219Z,57.20
2022-12-13T23:24:43.182Z,51.80
2022-12-13T23:29:44.731Z,56.27
2022-12-13T23:34:46.167Z,50.93
2022-12-13T23:39:47.630Z,47.80
2022-12-13T23:44:49.071Z,55.63
2022-12-13T23:49:50.517Z,54.53
2022-12-13T23:54:51.985Z,55.90
2022-12-13T23:59:53.400Z,54.10
